sensor_id;sensor_type;location;lat;lon;timestamp;pressure;altitude;pressure_sealevel;temperature;humidity
6599;BME280;3335;43.198;27.918;2023-02-19T00:01:42;150080.66;;;11.29;100.00
6599;BME280;3335;43.198;27.918;2023-02-19T00:04:11;150091.91;;;11.34;100.00
6599;BME280;3335;43.198;27.918;2023-02-19T00:06:40;150095.66;;;11.35;100.00
6599;BME280;3335;43.198;27.918;2023-02-19T00:09:08;150098.13;;;11.36;100.00
6599;BME280;3335;43.198;27.918;2023-02-19T00:11:36;150118.16;;;11.45;100.00
6599;BME280;3335;43.198;27.918;2023-02-19T00:14:03;150096.88;;;11.36;100.00
6599;BME280;3335;43.198;27.918;2023-02-19T00:16:33;150101.88;;;11.38;100.00
6599;BME280;3335;43.198;27.918;2023-02-19T00:19:02;150103.13;;;11.38;100.00
6599;BME280;3335;43.198;27.918;2023-02-19T00:21:29;150098.13;;;11.36;100.00
6599;BME280;3335;43.198;27.918;2023-02-19T00:23:58;150085.63;;;11.31;100.00
6599;BME280;3335;43.198;27.918;2023-02-19T00:26:25;150079.38;;;11.29;100.00
6599;BME280;3335;43.198;27.918;2023-02-19T00:28:54;150088.13;;;11.32;100.00
6599;BME280;3335;43.198;27.918;2023-02-19T00:31:22;150088.13;;;11.32;100.00
6599;BME280;3335;43.198;27.918;2023-02-19T00:33:53;150073.13;;;11.26;100.00
6599;BME280;3335;43.198;27.918;2023-02-19T00:36:20;150063.13;;;11.22;100.00
6599;BME280;3335;43.198;27.918;2023-02-19T00:38:48;150073.13;;;11.26;100.00
6599;BME280;3335;43.198;27.918;2023-02-19T00:41:16;150083.16;;;11.30;100.00
6599;BME280;3335;43.198;27.918;2023-02-19T00:43:48;150071.91;;;11.26;100.00
6599;BME280;3335;43.198;27.918;2023-02-19T00:46:16;150070.66;;;11.25;100.00
6599;BME280;3335;43.198;27.918;2023-02-19T00:48:44;150053.13;;;11.18;100.00
6599;BME280;3335;43.198;27.918;2023-02-19T00:51:12;150065.63;;;11.23;100.00
6599;BME280;3335;43.198;27.918;2023-02-19T00:53:39;150075.63;;;11.27;100.00
6599;BME280;3335;43.198;27.918;2023-02-19T00:56:07;150090.63;;;11.33;100.00
6599;BME280;3335;43.198;27.918;2023-02-19T00:58:34;150103.13;;;11.38;100.00
6599;BME280;3335;43.198;27.918;2023-02-19T01:01:01;150099.38;;;11.37;100.00
6599;BME280;3335;43.198;27.918;2023-02-19T01:03:28;150045.66;;;11.15;100.00
6599;BME280;3335;43.198;27.918;2023-02-19T01:05:55;150105.66;;;11.39;100.00
6599;BME280;3335;43.198;27.918;2023-02-19T01:08:24;150098.13;;;11.36;100.00
6599;BME280;3335;43.198;27.918;2023-02-19T01:10:51;150074.38;;;11.27;100.00
6599;BME280;3335;43.198;27.918;2023-02-19T01:13:18;150068.16;;;11.24;100.00
6599;BME280;3335;43.198;27.918;2023-02-19T01:15:45;150063.13;;;11.22;100.00
6599;BME280;3335;43.198;27.918;2023-02-19T01:18:11;150049.38;;;11.17;100.00
6599;BME280;3335;43.198;27.918;2023-02-19T01:20:39;150058.16;;;11.20;100.00
6599;BME280;3335;43.198;27.918;2023-02-19T01:23:06;150065.63;;;11.23;100.00
6599;BME280;3335;43.198;27.918;2023-02-19T01:25:37;150079.38;;;11.29;100.00
6599;BME280;3335;43.198;27.918;2023-02-19T01:28:04;150088.13;;;11.32;100.00
6599;BME280;3335;43.198;27.918;2023-02-19T01:30:33;150115.66;;;11.44;100.00
6599;BME280;3335;43.198;27.918;2023-02-19T01:33:00;150140.66;;;11.54;100.00
6599;BME280;3335;43.198;27.918;2023-02-19T01:35:26;150130.66;;;11.50;100.00
6599;BME280;3335;43.198;27.918;2023-02-19T01:37:53;150153.16;;;11.59;100.00
6599;BME280;3335;43.198;27.918;2023-02-19T01:40:20;150158.13;;;11.61;100.00
6599;BME280;3335;43.198;27.918;2023-02-19T01:42:49;150163.16;;;11.63;100.00
6599;BME280;3335;43.198;27.918;2023-02-19T01:45:21;150148.13;;;11.57;100.00
6599;BME280;3335;43.198;27.918;2023-02-19T01:47:53;150139.41;;;11.53;100.00
6599;BME280;3335;43.198;27.918;2023-02-19T01:50:24;150109.38;;;11.41;100.00
6599;BME280;3335;43.198;27.918;2023-02-19T01:52:53;150091.91;;;11.34;100.00
6599;BME280;3335;43.198;27.918;2023-02-19T01:55:21;150099.38;;;11.37;100.00
6599;BME280;3335;43.198;27.918;2023-02-19T01:57:52;150053.13;;;11.18;100.00
6599;BME280;3335;43.198;27.918;2023-02-19T02:00:21;149963.19;;;10.82;100.00
6599;BME280;3335;43.198;27.918;2023-02-19T02:02:51;150061.88;;;11.22;100.00
6599;BME280;3335;43.198;27.918;2023-02-19T02:05:45;150063.13;;;11.22;100.00
6599;BME280;3335;43.198;27.918;2023-02-19T02:08:16;150060.66;;;11.21;100.00
6599;BME280;3335;43.198;27.918;2023-02-19T02:11:01;150058.16;;;11.20;100.00
6599;BME280;3335;43.198;27.918;2023-02-19T02:13:31;150061.88;;;11.22;100.00
6599;BME280;3335;43.198;27.918;2023-02-19T02:16:05;150050.63;;;11.17;100.00
6599;BME280;3335;43.198;27.918;2023-02-19T02:18:46;150063.13;;;11.22;100.00
6599;BME280;3335;43.198;27.918;2023-02-19T02:21:33;150055.66;;;11.19;100.00
6599;BME280;3335;43.198;27.918;2023-02-19T02:24:11;150035.66;;;11.11;100.00
6599;BME280;3335;43.198;27.918;2023-02-19T02:26:57;150020.66;;;11.05;100.00
6599;BME280;3335;43.198;27.918;2023-02-19T02:29:55;150038.13;;;11.12;100.00
6599;BME280;3335;43.198;27.918;2023-02-19T02:32:34;150044.41;;;11.15;100.00
6599;BME280;3335;43.198;27.918;2023-02-19T02:35:07;150029.38;;;11.09;100.00
6599;BME280;3335;43.198;27.918;2023-02-19T02:37:37;150043.16;;;11.14;100.00
6599;BME280;3335;43.198;27.918;2023-02-19T02:40:06;150034.41;;;11.11;100.00
6599;BME280;3335;43.198;27.918;2023-02-19T02:42:37;150000.69;;;10.97;100.00
6599;BME280;3335;43.198;27.918;2023-02-19T02:45:23;149986.91;;;10.91;100.00
6599;BME280;3335;43.198;27.918;2023-02-19T02:48:03;149935.69;;;10.71;100.00
6599;BME280;3335;43.198;27.918;2023-02-19T02:50:35;149928.19;;;10.68;100.00
6599;BME280;3335;43.198;27.918;2023-02-19T02:53:06;149889.47;;;10.52;100.00
6599;BME280;3335;43.198;27.918;2023-02-19T02:55:52;149723.31;;;9.85;100.00
6599;BME280;3335;43.198;27.918;2023-02-19T02:58:22;149880.72;;;10.48;100.00
6599;BME280;3335;43.198;27.918;2023-02-19T03:00:54;149855.75;;;10.38;100.00
6599;BME280;3335;43.198;27.918;2023-02-19T03:03:42;149827.00;;;10.27;100.00
6599;BME280;3335;43.198;27.918;2023-02-19T03:06:13;149843.25;;;10.33;100.00
6599;BME280;3335;43.198;27.918;2023-02-19T03:08:44;149803.25;;;10.17;100.00
6599;BME280;3335;43.198;27.918;2023-02-19T03:11:13;149803.25;;;10.17;100.00
6599;BME280;3335;43.198;27.918;2023-02-19T03:14:00;149763.28;;;10.01;100.00
6599;BME280;3335;43.198;27.918;2023-02-19T03:16:48;149244.19;;;7.90;100.00
6599;BME280;3335;43.198;27.918;2023-02-19T03:19:38;149713.34;;;9.81;100.00
6599;BME280;3335;43.198;27.918;2023-02-19T03:22:07;149683.38;;;9.69;100.00
6599;BME280;3335;43.198;27.918;2023-02-19T03:24:47;149625.97;;;9.45;100.00
6599;BME280;3335;43.198;27.918;2023-02-19T03:27:33;149650.91;;;9.55;100.00
6599;BME280;3335;43.198;27.918;2023-02-19T03:30:04;149679.63;;;9.67;100.00
6599;BME280;3335;43.198;27.918;2023-02-19T03:32:38;149688.34;;;9.71;100.00
6599;BME280;3335;43.198;27.918;2023-02-19T03:35:09;149688.34;;;9.71;100.00
6599;BME280;3335;43.198;27.918;2023-02-19T03:37:40;149697.06;;;9.74;100.00
6599;BME280;3335;43.198;27.918;2023-02-19T03:40:10;149720.81;;;9.84;100.00
6599;BME280;3335;43.198;27.918;2023-02-19T03:42:42;149743.31;;;9.93;100.00
6599;BME280;3335;43.198;27.918;2023-02-19T03:45:23;149770.75;;;10.04;100.00
6599;BME280;3335;43.198;27.918;2023-02-19T03:48:10;149800.81;;;10.16;100.00
6599;BME280;3335;43.198;27.918;2023-02-19T03:50:44;149802.06;;;10.17;100.00
6599;BME280;3335;43.198;27.918;2023-02-19T03:53:19;149807.03;;;10.19;100.00
6599;BME280;3335;43.198;27.918;2023-02-19T03:55:55;149815.75;;;10.22;100.00
6599;BME280;3335;43.198;27.918;2023-02-19T03:58:26;149809.53;;;10.20;100.00
6599;BME280;3335;43.198;27.918;2023-02-19T04:00:58;149808.28;;;10.19;100.00
6599;BME280;3335;43.198;27.918;2023-02-19T04:03:34;149807.03;;;10.19;100.00
6599;BME280;3335;43.198;27.918;2023-02-19T04:06:06;149787.00;;;10.10;100.00
6599;BME280;3335;43.198;27.918;2023-02-19T04:08:38;149760.78;;;10.00;100.00
6599;BME280;3335;43.198;27.918;2023-02-19T04:11:09;149770.75;;;10.04;100.00
6599;BME280;3335;43.198;27.918;2023-02-19T04:13:40;149790.78;;;10.12;100.00
6599;BME280;3335;43.198;27.918;2023-02-19T04:16:12;149787.00;;;10.10;100.00
6599;BME280;3335;43.198;27.918;2023-02-19T04:18:45;149805.78;;;10.18;100.00
6599;BME280;3335;43.198;27.918;2023-02-19T04:21:13;149815.75;;;10.22;100.00
6599;BME280;3335;43.198;27.918;2023-02-19T04:23:43;149818.25;;;10.23;100.00
6599;BME280;3335;43.198;27.918;2023-02-19T04:26:12;149835.78;;;10.30;100.00
6599;BME280;3335;43.198;27.918;2023-02-19T04:28:40;149815.75;;;10.22;100.00
6599;BME280;3335;43.198;27.918;2023-02-19T04:31:09;149863.22;;;10.41;100.00
6599;BME280;3335;43.198;27.918;2023-02-19T04:33:36;149868.22;;;10.43;100.00
6599;BME280;3335;43.198;27.918;2023-02-19T04:36:06;149891.97;;;10.53;100.00
6599;BME280;3335;43.198;27.918;2023-02-19T04:38:33;149905.72;;;10.59;100.00
6599;BME280;3335;43.198;27.918;2023-02-19T04:41:00;149935.69;;;10.71;100.00
6599;BME280;3335;43.198;27.918;2023-02-19T04:43:27;149941.94;;;10.73;100.00
6599;BME280;3335;43.198;27.918;2023-02-19T04:45:58;149941.94;;;10.73;100.00
6599;BME280;3335;43.198;27.918;2023-02-19T04:48:25;149930.72;;;10.69;100.00
6599;BME280;3335;43.198;27.918;2023-02-19T04:50:52;149904.47;;;10.58;100.00
6599;BME280;3335;43.198;27.918;2023-02-19T04:53:20;149908.19;;;10.60;100.00
6599;BME280;3335;43.198;27.918;2023-02-19T04:55:47;149898.19;;;10.56;100.00
6599;BME280;3335;43.198;27.918;2023-02-19T04:58:18;149895.72;;;10.55;100.00
6599;BME280;3335;43.198;27.918;2023-02-19T05:00:45;149925.69;;;10.67;100.00
6599;BME280;3335;43.198;27.918;2023-02-19T05:03:12;149950.69;;;10.77;100.00
6599;BME280;3335;43.198;27.918;2023-02-19T05:05:39;149965.69;;;10.83;100.00
6599;BME280;3335;43.198;27.918;2023-02-19T05:08:06;149994.41;;;10.94;100.00
6599;BME280;3335;43.198;27.918;2023-02-19T05:10:34;150008.16;;;11.00;100.00
6599;BME280;3335;43.198;27.918;2023-02-19T05:13:01;150035.66;;;11.11;100.00
6599;BME280;3335;43.198;27.918;2023-02-19T05:15:28;150041.88;;;11.14;100.00
6599;BME280;3335;43.198;27.918;2023-02-19T05:17:55;150058.16;;;11.20;100.00
6599;BME280;3335;43.198;27.918;2023-02-19T05:20:22;150153.16;;;11.59;100.00
6599;BME280;3335;43.198;27.918;2023-02-19T05:22:48;150210.72;;;11.82;100.00
6599;BME280;3335;43.198;27.918;2023-02-19T05:25:15;150231.97;;;11.91;100.00
6599;BME280;3335;43.198;27.918;2023-02-19T05:27:44;150248.22;;;11.97;100.00
6599;BME280;3335;43.198;27.918;2023-02-19T05:30:11;150278.22;;;12.09;100.00
6599;BME280;3335;43.198;27.918;2023-02-19T05:32:38;150285.72;;;12.12;100.00
6599;BME280;3335;43.198;27.918;2023-02-19T05:35:05;150253.22;;;11.99;100.00
6599;BME280;3335;43.198;27.918;2023-02-19T05:37:32;150293.25;;;12.15;100.00
6599;BME280;3335;43.198;27.918;2023-02-19T05:39:59;150299.47;;;12.18;100.00
6599;BME280;3335;43.198;27.918;2023-02-19T05:42:26;150314.50;;;12.24;100.00
6599;BME280;3335;43.198;27.918;2023-02-19T05:44:54;150329.53;;;12.30;100.00
6599;BME280;3335;43.198;27.918;2023-02-19T05:47:21;150355.75;;;12.41;100.00
6599;BME280;3335;43.198;27.918;2023-02-19T05:49:48;150405.81;;;12.61;100.00
6599;BME280;3335;43.198;27.918;2023-02-19T05:52:15;150395.81;;;12.57;100.00
6599;BME280;3335;43.198;27.918;2023-02-19T05:54:42;150443.34;;;12.76;100.00
6599;BME280;3335;43.198;27.918;2023-02-19T05:57:09;150448.38;;;12.78;100.00
6599;BME280;3335;43.198;27.918;2023-02-19T05:59:35;150449.59;;;12.79;100.00
6599;BME280;3335;43.198;27.918;2023-02-19T06:02:04;150458.38;;;12.82;100.00
6599;BME280;3335;43.198;27.918;2023-02-19T06:04:31;150458.38;;;12.82;100.00
6599;BME280;3335;43.198;27.918;2023-02-19T06:06:57;150472.09;;;12.88;100.00
6599;BME280;3335;43.198;27.918;2023-02-19T06:09:24;150497.13;;;12.98;100.00
6599;BME280;3335;43.198;27.918;2023-02-19T06:11:51;150520.91;;;13.07;100.00
6599;BME280;3335;43.198;27.918;2023-02-19T06:14:18;150517.19;;;13.06;100.00
6599;BME280;3335;43.198;27.918;2023-02-19T06:16:45;150488.38;;;12.94;100.00
6599;BME280;3335;43.198;27.918;2023-02-19T06:19:13;150546.00;;;13.18;100.00
6599;BME280;3335;43.198;27.918;2023-02-19T06:21:41;150546.00;;;13.18;100.00
6599;BME280;3335;43.198;27.918;2023-02-19T06:24:08;150553.53;;;13.21;100.00
6599;BME280;3335;43.198;27.918;2023-02-19T06:26:35;150566.06;;;13.26;100.00
6599;BME280;3335;43.198;27.918;2023-02-19T06:29:02;150588.59;;;13.35;100.00
6599;BME280;3335;43.198;27.918;2023-02-19T06:31:29;150587.31;;;13.34;100.00
6599;BME280;3335;43.198;27.918;2023-02-19T06:33:56;150591.06;;;13.36;100.00
6599;BME280;3335;43.198;27.918;2023-02-19T06:36:24;150612.38;;;13.44;100.00
6599;BME280;3335;43.198;27.918;2023-02-19T06:38:51;150631.13;;;13.52;100.00
6599;BME280;3335;43.198;27.918;2023-02-19T06:41:18;150633.66;;;13.53;100.00
6599;BME280;3335;43.198;27.918;2023-02-19T06:43:45;150643.66;;;13.57;100.00
6599;BME280;3335;43.198;27.918;2023-02-19T06:46:12;150651.16;;;13.60;100.00
6599;BME280;3335;43.198;27.918;2023-02-19T06:48:40;150618.59;;;13.47;100.00
6599;BME280;3335;43.198;27.918;2023-02-19T06:51:10;150631.13;;;13.52;100.00
6599;BME280;3335;43.198;27.918;2023-02-19T06:53:39;150673.69;;;13.69;100.00
6599;BME280;3335;43.198;27.918;2023-02-19T06:56:18;150669.97;;;13.68;100.00
6599;BME280;3335;43.198;27.918;2023-02-19T06:58:46;150629.88;;;13.51;100.00
6599;BME280;3335;43.198;27.918;2023-02-19T07:01:13;150692.50;;;13.77;100.00
6599;BME280;3335;43.198;27.918;2023-02-19T07:03:40;150723.78;;;13.89;100.00
6599;BME280;3335;43.198;27.918;2023-02-19T07:06:07;150742.53;;;13.97;100.00
6599;BME280;3335;43.198;27.918;2023-02-19T07:08:34;150753.84;;;14.01;100.00
6599;BME280;3335;43.198;27.918;2023-02-19T07:11:03;150783.91;;;14.14;100.00
6599;BME280;3335;43.198;27.918;2023-02-19T07:13:30;150796.44;;;14.19;100.00
6599;BME280;3335;43.198;27.918;2023-02-19T07:15:58;150806.44;;;14.23;100.00
6599;BME280;3335;43.198;27.918;2023-02-19T07:18:25;150770.13;;;14.08;100.00
6599;BME280;3335;43.198;27.918;2023-02-19T07:20:52;150831.50;;;14.33;100.00
6599;BME280;3335;43.198;27.918;2023-02-19T07:23:19;150841.56;;;14.37;100.00
6599;BME280;3335;43.198;27.918;2023-02-19T07:25:46;150865.34;;;14.47;100.00
6599;BME280;3335;43.198;27.918;2023-02-19T07:28:15;150901.69;;;14.61;100.00
6599;BME280;3335;43.198;27.918;2023-02-19T07:30:42;150896.66;;;14.59;100.00
6599;BME280;3335;43.198;27.918;2023-02-19T07:33:09;150919.22;;;14.68;100.00
6599;BME280;3335;43.198;27.918;2023-02-19T07:35:36;150929.28;;;14.72;100.00
6599;BME280;3335;43.198;27.918;2023-02-19T07:38:03;150951.81;;;14.81;100.00
6599;BME280;3335;43.198;27.918;2023-02-19T07:40:30;150979.38;;;14.93;99.51
6599;BME280;3335;43.198;27.918;2023-02-19T07:42:58;150928.03;;;14.72;99.69
6599;BME280;3335;43.198;27.918;2023-02-19T07:45:27;150988.19;;;14.96;99.25
6599;BME280;3335;43.198;27.918;2023-02-19T07:47:54;150974.38;;;14.91;99.53
6599;BME280;3335;43.198;27.918;2023-02-19T07:50:21;151004.44;;;15.03;99.38
6599;BME280;3335;43.198;27.918;2023-02-19T07:52:47;151016.97;;;15.08;98.94
6599;BME280;3335;43.198;27.918;2023-02-19T07:55:14;150909.19;;;14.64;98.58
6599;BME280;3335;43.198;27.918;2023-02-19T07:57:41;151010.72;;;15.05;98.25
6599;BME280;3335;43.198;27.918;2023-02-19T08:00:09;151001.91;;;15.02;97.79
6599;BME280;3335;43.198;27.918;2023-02-19T08:02:38;151018.22;;;15.08;97.13
6599;BME280;3335;43.198;27.918;2023-02-19T08:05:22;151024.53;;;15.11;96.86
6599;BME280;3335;43.198;27.918;2023-02-19T08:07:49;151047.06;;;15.20;96.34
6599;BME280;3335;43.198;27.918;2023-02-19T08:10:16;151070.91;;;15.29;95.46
6599;BME280;3335;43.198;27.918;2023-02-19T08:13:00;151074.63;;;15.31;95.83
6599;BME280;3335;43.198;27.918;2023-02-19T08:15:52;151084.66;;;15.35;96.52
6599;BME280;3335;43.198;27.918;2023-02-19T08:18:22;151093.47;;;15.39;96.32
6599;BME280;3335;43.198;27.918;2023-02-19T08:20:49;151104.72;;;15.43;95.53
6599;BME280;3335;43.198;27.918;2023-02-19T08:23:17;151099.69;;;15.41;95.27
6599;BME280;3335;43.198;27.918;2023-02-19T08:25:45;151167.44;;;15.68;93.67
6599;BME280;3335;43.198;27.918;2023-02-19T08:28:12;151177.50;;;15.72;92.76
6599;BME280;3335;43.198;27.918;2023-02-19T08:30:41;151190.00;;;15.77;92.60
6599;BME280;3335;43.198;27.918;2023-02-19T08:33:10;151178.72;;;15.73;91.67
6599;BME280;3335;43.198;27.918;2023-02-19T08:35:40;151245.22;;;16.00;91.87
6599;BME280;3335;43.198;27.918;2023-02-19T08:38:08;151269.03;;;16.09;90.45
6599;BME280;3335;43.198;27.918;2023-02-19T08:40:36;151277.81;;;16.13;90.93
6599;BME280;3335;43.198;27.918;2023-02-19T08:43:05;151286.56;;;16.16;90.75
6599;BME280;3335;43.198;27.918;2023-02-19T08:45:32;151287.84;;;16.17;90.39
6599;BME280;3335;43.198;27.918;2023-02-19T08:47:59;151289.09;;;16.17;91.49
6599;BME280;3335;43.198;27.918;2023-02-19T08:50:26;151302.91;;;16.23;90.71
6599;BME280;3335;43.198;27.918;2023-02-19T08:52:55;151317.97;;;16.29;90.00
6599;BME280;3335;43.198;27.918;2023-02-19T08:55:22;151338.03;;;16.37;89.63
6599;BME280;3335;43.198;27.918;2023-02-19T08:57:48;151334.25;;;16.36;90.19
6599;BME280;3335;43.198;27.918;2023-02-19T09:00:16;151375.66;;;16.52;90.38
6599;BME280;3335;43.198;27.918;2023-02-19T09:02:43;151393.25;;;16.59;89.33
6599;BME280;3335;43.198;27.918;2023-02-19T09:05:10;151390.72;;;16.58;88.92
6599;BME280;3335;43.198;27.918;2023-02-19T09:07:38;151405.81;;;16.65;88.65
6599;BME280;3335;43.198;27.918;2023-02-19T09:10:07;151380.66;;;16.54;88.61
6599;BME280;3335;43.198;27.918;2023-02-19T09:12:35;151413.38;;;16.68;88.10
6599;BME280;3335;43.198;27.918;2023-02-19T09:15:03;151383.19;;;16.55;89.87
6599;BME280;3335;43.198;27.918;2023-02-19T09:17:30;151437.19;;;16.77;89.92
6599;BME280;3335;43.198;27.918;2023-02-19T09:19:57;151456.00;;;16.85;89.20
6599;BME280;3335;43.198;27.918;2023-02-19T09:22:24;151463.50;;;16.88;88.95
6599;BME280;3335;43.198;27.918;2023-02-19T09:24:51;151473.56;;;16.92;89.29
6599;BME280;3335;43.198;27.918;2023-02-19T09:27:19;151483.63;;;16.96;88.21
6599;BME280;3335;43.198;27.918;2023-02-19T09:29:46;151496.19;;;17.01;87.77
6599;BME280;3335;43.198;27.918;2023-02-19T09:32:13;151491.16;;;16.99;87.92
6599;BME280;3335;43.198;27.918;2023-02-19T09:34:40;151517.50;;;17.10;87.61
6599;BME280;3335;43.198;27.918;2023-02-19T09:37:07;151528.81;;;17.14;87.17
6599;BME280;3335;43.198;27.918;2023-02-19T09:39:34;151522.50;;;17.12;86.20
6599;BME280;3335;43.198;27.918;2023-02-19T09:42:03;151541.34;;;17.19;86.69
6599;BME280;3335;43.198;27.918;2023-02-19T09:44:39;151563.94;;;17.28;85.53
6599;BME280;3335;43.198;27.918;2023-02-19T09:47:14;151563.94;;;17.28;84.78
6599;BME280;3335;43.198;27.918;2023-02-19T09:49:43;151558.91;;;17.26;85.58
6599;BME280;3335;43.198;27.918;2023-02-19T09:52:19;151604.09;;;17.44;84.32
6599;BME280;3335;43.198;27.918;2023-02-19T09:54:50;151643.06;;;17.60;83.58
6599;BME280;3335;43.198;27.918;2023-02-19T09:57:22;151671.97;;;17.72;82.13
6599;BME280;3335;43.198;27.918;2023-02-19T09:59:52;151664.41;;;17.69;81.09
6599;BME280;3335;43.198;27.918;2023-02-19T10:02:25;151712.13;;;17.88;79.83
6599;BME280;3335;43.198;27.918;2023-02-19T10:04:56;151724.69;;;17.93;80.04
6599;BME280;3335;43.198;27.918;2023-02-19T10:07:25;151724.69;;;17.93;78.24
6599;BME280;3335;43.198;27.918;2023-02-19T10:09:56;151784.97;;;18.17;77.44
6599;BME280;3335;43.198;27.918;2023-02-19T10:12:28;151792.50;;;18.20;76.48
6599;BME280;3335;43.198;27.918;2023-02-19T10:15:00;151836.50;;;18.38;76.09
6599;BME280;3335;43.198;27.918;2023-02-19T10:17:31;151801.31;;;18.24;75.75
6599;BME280;3335;43.198;27.918;2023-02-19T10:20:00;151805.06;;;18.25;75.06
6599;BME280;3335;43.198;27.918;2023-02-19T10:22:29;151784.97;;;18.17;74.89
6599;BME280;3335;43.198;27.918;2023-02-19T10:24:57;151762.38;;;18.08;74.54
6599;BME280;3335;43.198;27.918;2023-02-19T10:27:26;151795.00;;;18.21;74.82
6599;BME280;3335;43.198;27.918;2023-02-19T10:29:57;151823.91;;;18.33;74.43
6599;BME280;3335;43.198;27.918;2023-02-19T10:32:26;151798.78;;;18.23;74.19
6599;BME280;3335;43.198;27.918;2023-02-19T10:35:09;151812.63;;;18.28;73.95
6599;BME280;3335;43.198;27.918;2023-02-19T10:37:42;151821.41;;;18.32;72.98
6599;BME280;3335;43.198;27.918;2023-02-19T10:40:18;151822.66;;;18.32;73.42
6599;BME280;3335;43.198;27.918;2023-02-19T10:42:47;151795.00;;;18.21;74.51
6599;BME280;3335;43.198;27.918;2023-02-19T10:45:21;151797.53;;;18.22;73.98
6599;BME280;3335;43.198;27.918;2023-02-19T10:47:49;151813.88;;;18.29;74.11
6599;BME280;3335;43.198;27.918;2023-02-19T10:50:20;151767.41;;;18.10;73.55
6599;BME280;3335;43.198;27.918;2023-02-19T10:52:51;151704.59;;;17.85;74.57
6599;BME280;3335;43.198;27.918;2023-02-19T10:55:27;151709.59;;;17.87;74.50
6599;BME280;3335;43.198;27.918;2023-02-19T10:57:55;151735.97;;;17.98;74.56
6599;BME280;3335;43.198;27.918;2023-02-19T11:00:24;151718.44;;;17.90;75.63
6599;BME280;3335;43.198;27.918;2023-02-19T11:03:13;151768.63;;;18.11;74.84
6599;BME280;3335;43.198;27.918;2023-02-19T11:05:52;151847.78;;;18.43;72.89
6599;BME280;3335;43.198;27.918;2023-02-19T11:08:21;151893.06;;;18.61;71.73
6599;BME280;3335;43.198;27.918;2023-02-19T11:10:49;151948.31;;;18.83;70.18
6599;BME280;3335;43.198;27.918;2023-02-19T11:13:26;152006.13;;;19.06;69.57
6599;BME280;3335;43.198;27.918;2023-02-19T11:15:57;152046.34;;;19.22;68.84
6599;BME280;3335;43.198;27.918;2023-02-19T11:18:27;152045.09;;;19.22;69.07
6599;BME280;3335;43.198;27.918;2023-02-19T11:20:56;152081.56;;;19.37;68.11
6599;BME280;3335;43.198;27.918;2023-02-19T11:23:26;152110.47;;;19.48;66.31
6599;BME280;3335;43.198;27.918;2023-02-19T11:25:55;152058.94;;;19.28;67.38
6599;BME280;3335;43.198;27.918;2023-02-19T11:28:29;152074.03;;;19.34;67.92
6599;BME280;3335;43.198;27.918;2023-02-19T11:31:14;151913.13;;;18.69;68.35
6599;BME280;3335;43.198;27.918;2023-02-19T11:33:44;152007.38;;;19.07;67.96
6599;BME280;3335;43.198;27.918;2023-02-19T11:36:28;151975.97;;;18.94;68.72
6599;BME280;3335;43.198;27.918;2023-02-19T11:38:56;151890.53;;;18.60;69.34
6599;BME280;3335;43.198;27.918;2023-02-19T11:41:44;151865.34;;;18.50;71.28
6599;BME280;3335;43.198;27.918;2023-02-19T11:44:23;151842.75;;;18.41;71.67
6599;BME280;3335;43.198;27.918;2023-02-19T11:47:06;151889.28;;;18.59;71.66
6599;BME280;3335;43.198;27.918;2023-02-19T11:49:39;151952.09;;;18.85;71.13
6599;BME280;3335;43.198;27.918;2023-02-19T11:52:21;152031.25;;;19.16;70.33
6599;BME280;3335;43.198;27.918;2023-02-19T11:54:55;152048.88;;;19.23;69.14
6599;BME280;3335;43.198;27.918;2023-02-19T11:57:37;152063.94;;;19.30;69.19
6599;BME280;3335;43.198;27.918;2023-02-19T12:00:19;152119.31;;;19.52;67.83
6599;BME280;3335;43.198;27.918;2023-02-19T12:03:09;152135.63;;;19.58;66.82
6599;BME280;3335;43.198;27.918;2023-02-19T12:05:49;152095.38;;;19.42;66.81
6599;BME280;3335;43.198;27.918;2023-02-19T12:09:02;152082.81;;;19.37;66.08
6599;BME280;3335;43.198;27.918;2023-02-19T12:11:43;152101.69;;;19.45;66.44
6599;BME280;3335;43.198;27.918;2023-02-19T12:14:42;152031.25;;;19.16;67.39
6599;BME280;3335;43.198;27.918;2023-02-19T12:17:17;151965.94;;;18.90;69.35
6599;BME280;3335;43.198;27.918;2023-02-19T12:20:00;151940.81;;;18.80;70.42
6599;BME280;3335;43.198;27.918;2023-02-19T12:22:31;151980.97;;;18.96;68.70
6599;BME280;3335;43.198;27.918;2023-02-19T12:25:17;151993.56;;;19.01;67.67
6599;BME280;3335;43.198;27.918;2023-02-19T12:28:14;152003.66;;;19.05;67.53
6599;BME280;3335;43.198;27.918;2023-02-19T12:31:12;152006.13;;;19.06;66.60
6599;BME280;3335;43.198;27.918;2023-02-19T12:34:06;151988.56;;;18.99;64.61
6599;BME280;3335;43.198;27.918;2023-02-19T12:36:49;151972.19;;;18.93;64.52
6599;BME280;3335;43.198;27.918;2023-02-19T12:39:28;151925.72;;;18.74;65.40
6599;BME280;3335;43.198;27.918;2023-02-19T12:42:04;151928.22;;;18.75;66.37
6599;BME280;3335;43.198;27.918;2023-02-19T12:44:40;151923.19;;;18.73;66.67
6599;BME280;3335;43.198;27.918;2023-02-19T12:47:15;151908.16;;;18.67;66.64
6599;BME280;3335;43.198;27.918;2023-02-19T12:49:48;151903.09;;;18.65;66.65
6599;BME280;3335;43.198;27.918;2023-02-19T12:52:21;151905.63;;;18.66;66.89
6599;BME280;3335;43.198;27.918;2023-02-19T12:54:52;151898.06;;;18.63;67.00
6599;BME280;3335;43.198;27.918;2023-02-19T12:57:22;151893.06;;;18.61;67.05
6599;BME280;3335;43.198;27.918;2023-02-19T12:59:53;151893.06;;;18.61;67.22
6599;BME280;3335;43.198;27.918;2023-02-19T13:02:27;151900.56;;;18.64;67.54
6599;BME280;3335;43.198;27.918;2023-02-19T13:05:00;151919.44;;;18.71;67.41
6599;BME280;3335;43.198;27.918;2023-02-19T13:07:35;151916.94;;;18.70;67.87
6599;BME280;3335;43.198;27.918;2023-02-19T13:10:25;151933.22;;;18.77;67.46
6599;BME280;3335;43.198;27.918;2023-02-19T13:12:57;151918.19;;;18.71;68.16
6599;BME280;3335;43.198;27.918;2023-02-19T13:15:31;151872.91;;;18.53;69.41
6599;BME280;3335;43.198;27.918;2023-02-19T13:18:02;151856.56;;;18.46;70.20